createdAt,value
2022-10-29T00:00:34.507Z,0.00
2022-10-29T00:15:34.487Z,0.00
2022-10-29T00:30:34.551Z,0.01
2022-10-29T00:45:34.757Z,0.00
2022-10-29T01:00:34.723Z,0.00
2022-10-29T01:15:34.700Z,0.00
2022-10-29T01:30:34.805Z,0.07
2022-10-29T01:45:34.853Z,0.00
2022-10-29T02:00:34.925Z,0.00
2022-10-29T02:15:34.876Z,0.00
2022-10-29T02:30:34.977Z,0.00
2022-10-29T02:45:34.951Z,0.00
2022-10-29T03:00:35.054Z,0.05
2022-10-29T03:15:35.024Z,0.18
2022-10-29T03:30:34.976Z,0.44
2022-10-29T03:45:35.076Z,0.40
2022-10-29T04:00:35.214Z,0.19
2022-10-29T04:15:35.176Z,0.26
2022-10-29T04:30:35.157Z,0.00
2022-10-29T04:45:35.206Z,0.04
2022-10-29T05:00:35.319Z,0.05
2022-10-29T05:15:35.259Z,0.00
2022-10-29T05:30:35.181Z,0.00
2022-10-29T05:45:35.217Z,0.00
2022-10-29T06:00:35.341Z,0.00
2022-10-29T06:15:35.278Z,0.17
2022-10-29T06:30:35.415Z,0.17
2022-10-29T06:45:35.389Z,0.00
2022-10-29T07:00:35.662Z,0.02
2022-10-29T07:15:35.451Z,0.31
2022-10-29T07:30:35.576Z,0.00
2022-10-29T07:45:35.529Z,0.04
2022-10-29T08:00:35.603Z,0.22
2022-10-29T08:15:35.584Z,0.16
2022-10-29T08:30:35.696Z,0.53
2022-10-29T08:45:35.783Z,0.99
2022-10-29T09:00:35.823Z,1.11
2022-10-29T09:15:35.789Z,1.95
2022-10-29T09:30:35.798Z,1.88
2022-10-29T09:45:35.859Z,1.77
2022-10-29T10:00:35.971Z,1.85
2022-10-29T10:15:35.957Z,1.46
2022-10-29T10:30:35.970Z,1.75
2022-10-29T10:45:35.989Z,1.64
2022-10-29T11:00:35.966Z,1.89
2022-10-29T11:15:36.140Z,1.81
2022-10-29T11:30:36.178Z,1.85
2022-10-29T11:45:36.104Z,1.83
2022-10-29T12:00:36.115Z,1.90
2022-10-29T12:15:36.285Z,1.57
2022-10-29T12:30:36.272Z,1.70
2022-10-29T12:45:43.435Z,1.39
2022-10-29T13:00:36.415Z,1.17
2022-10-29T13:15:36.378Z,1.39
2022-10-29T13:30:36.347Z,1.89
2022-10-29T13:45:36.484Z,1.37
2022-10-29T14:00:36.501Z,1.93
2022-10-29T14:15:36.505Z,1.81
2022-10-29T14:30:36.565Z,1.79
2022-10-29T14:45:36.519Z,1.26
2022-10-29T15:00:36.760Z,1.15
2022-10-29T15:15:36.781Z,1.33
2022-10-29T15:30:37.079Z,1.08
2022-10-29T15:45:36.612Z,0.49
2022-10-29T16:00:36.666Z,0.30
2022-10-29T16:15:40.101Z,0.93
2022-10-29T16:30:36.963Z,0.80
2022-10-29T16:45:37.069Z,1.03
2022-10-29T17:00:36.930Z,1.34
2022-10-29T17:15:36.808Z,1.71
2022-10-29T17:30:36.976Z,1.28
2022-10-29T17:45:36.958Z,0.89
2022-10-29T18:00:37.071Z,0.96
2022-10-29T18:15:37.020Z,1.70
2022-10-29T18:30:37.020Z,1.62
2022-10-29T18:45:37.082Z,1.67
2022-10-29T19:00:37.306Z,1.47
2022-10-29T19:15:37.529Z,0.99
2022-10-29T19:30:37.248Z,1.54
2022-10-29T19:45:37.558Z,1.72
2022-10-29T20:00:37.368Z,1.13
2022-10-29T20:15:37.367Z,0.98
2022-10-29T20:30:37.343Z,1.22
2022-10-29T20:45:37.342Z,1.72
2022-10-29T21:00:37.516Z,1.08
2022-10-29T21:15:37.401Z,1.17
2022-10-29T21:30:37.517Z,0.97
2022-10-29T21:45:37.608Z,0.86
2022-10-29T22:00:37.545Z,0.66
2022-10-29T22:15:37.531Z,1.01
2022-10-29T22:30:37.693Z,0.84
2022-10-29T22:45:37.647Z,0.90
2022-10-29T23:00:37.602Z,0.68
2022-10-29T23:15:37.822Z,0.57
2022-10-29T23:30:37.733Z,0.69
2022-10-29T23:45:44.302Z,0.79
